sensor_id;sensor_type;location;lat;lon;timestamp;pressure;altitude;pressure_sealevel;temperature;humidity
64298;BME280;50639;53.270;7.956;2023-11-19T00:01:34;100566.22;;;8.11;93.91
64298;BME280;50639;53.270;7.956;2023-11-19T00:03:59;100568.28;;;8.20;93.98
64298;BME280;50639;53.270;7.956;2023-11-19T00:06:25;100558.88;;;8.19;94.00
64298;BME280;50639;53.270;7.956;2023-11-19T00:08:50;100562.81;;;8.26;93.82
64298;BME280;50639;53.270;7.956;2023-11-19T00:11:16;100555.69;;;8.31;93.58
64298;BME280;50639;53.270;7.956;2023-11-19T00:13:41;100540.53;;;8.41;93.57
64298;BME280;50639;53.270;7.956;2023-11-19T00:16:08;100539.84;;;8.37;93.47
64298;BME280;50639;53.270;7.956;2023-11-19T00:18:35;100538.63;;;8.44;93.92
64298;BME280;50639;53.270;7.956;2023-11-19T00:21:01;100545.00;;;8.53;93.81
64298;BME280;50639;53.270;7.956;2023-11-19T00:23:27;100548.81;;;8.61;93.85
64298;BME280;50639;53.270;7.956;2023-11-19T00:25:52;100551.97;;;8.66;93.93
64298;BME280;50639;53.270;7.956;2023-11-19T00:28:18;100543.22;;;8.69;94.15
64298;BME280;50639;53.270;7.956;2023-11-19T00:30:43;100527.44;;;8.74;94.26
64298;BME280;50639;53.270;7.956;2023-11-19T00:33:08;100512.72;;;8.76;94.40
64298;BME280;50639;53.270;7.956;2023-11-19T00:35:34;100524.25;;;8.84;94.01
64298;BME280;50639;53.270;7.956;2023-11-19T00:37:59;100519.75;;;8.88;94.19
64298;BME280;50639;53.270;7.956;2023-11-19T00:40:25;100508.59;;;9.01;94.01
64298;BME280;50639;53.270;7.956;2023-11-19T00:42:51;100498.97;;;8.89;94.54
64298;BME280;50639;53.270;7.956;2023-11-19T00:45:16;100490.22;;;8.92;94.52
64298;BME280;50639;53.270;7.956;2023-11-19T00:47:42;100477.69;;;9.00;94.07
64298;BME280;50639;53.270;7.956;2023-11-19T00:50:08;100488.59;;;9.05;94.07
64298;BME280;50639;53.270;7.956;2023-11-19T00:52:37;100472.97;;;9.06;94.34
64298;BME280;50639;53.270;7.956;2023-11-19T00:55:04;100484.53;;;9.15;94.24
64298;BME280;50639;53.270;7.956;2023-11-19T00:57:30;100481.50;;;9.23;93.88
64298;BME280;50639;53.270;7.956;2023-11-19T00:59:58;100477.34;;;9.20;94.47
64298;BME280;50639;53.270;7.956;2023-11-19T01:02:24;100474.13;;;9.31;94.29
64298;BME280;50639;53.270;7.956;2023-11-19T01:04:49;100477.41;;;9.33;94.04
64298;BME280;50639;53.270;7.956;2023-11-19T01:07:15;100451.41;;;9.36;94.22
64298;BME280;50639;53.270;7.956;2023-11-19T01:09:42;100443.38;;;9.40;93.95
64298;BME280;50639;53.270;7.956;2023-11-19T01:12:07;100445.88;;;9.28;94.08
64298;BME280;50639;53.270;7.956;2023-11-19T01:14:34;100450.03;;;9.30;94.30
64298;BME280;50639;53.270;7.956;2023-11-19T01:17:00;100459.72;;;9.41;94.25
64298;BME280;50639;53.270;7.956;2023-11-19T01:19:26;100445.00;;;9.41;94.42
64298;BME280;50639;53.270;7.956;2023-11-19T01:21:53;100440.41;;;9.47;93.76
64298;BME280;50639;53.270;7.956;2023-11-19T01:24:19;100444.56;;;9.49;94.76
64298;BME280;50639;53.270;7.956;2023-11-19T01:26:45;100439.94;;;9.54;94.24
64298;BME280;50639;53.270;7.956;2023-11-19T01:29:14;100445.75;;;9.58;94.31
64298;BME280;50639;53.270;7.956;2023-11-19T01:31:41;100445.75;;;9.58;94.88
64298;BME280;50639;53.270;7.956;2023-11-19T01:34:06;100446.09;;;9.66;94.36
64298;BME280;50639;53.270;7.956;2023-11-19T01:36:32;100422.59;;;9.69;93.70
64298;BME280;50639;53.270;7.956;2023-11-19T01:38:57;100423.53;;;9.68;94.51
64298;BME280;50639;53.270;7.956;2023-11-19T01:41:23;100421.50;;;9.73;94.32
64298;BME280;50639;53.270;7.956;2023-11-19T01:43:48;100416.16;;;9.76;94.57
64298;BME280;50639;53.270;7.956;2023-11-19T01:46:13;100407.25;;;9.80;94.25
64298;BME280;50639;53.270;7.956;2023-11-19T01:48:41;100412.63;;;9.77;94.52
64298;BME280;50639;53.270;7.956;2023-11-19T01:51:08;100404.47;;;9.83;94.80
64298;BME280;50639;53.270;7.956;2023-11-19T01:53:36;100398.72;;;9.92;94.77
64298;BME280;50639;53.270;7.956;2023-11-19T01:56:02;100402.75;;;9.96;94.80
64298;BME280;50639;53.270;7.956;2023-11-19T01:58:28;100406.38;;;9.94;94.43
64298;BME280;50639;53.270;7.956;2023-11-19T02:00:55;100411.16;;;10.00;94.35
64298;BME280;50639;53.270;7.956;2023-11-19T02:03:21;100413.97;;;10.09;94.46
64298;BME280;50639;53.270;7.956;2023-11-19T02:05:48;100410.06;;;10.16;94.29
64298;BME280;50639;53.270;7.956;2023-11-19T02:08:14;100399.66;;;10.18;94.35
64298;BME280;50639;53.270;7.956;2023-11-19T02:10:40;100391.56;;;10.23;94.63
64298;BME280;50639;53.270;7.956;2023-11-19T02:13:05;100401.53;;;10.29;94.52
64298;BME280;50639;53.270;7.956;2023-11-19T02:15:32;100387.44;;;10.33;94.49
64298;BME280;50639;53.270;7.956;2023-11-19T02:18:17;100380.59;;;10.32;94.36
64298;BME280;50639;53.270;7.956;2023-11-19T02:20:42;100375.66;;;10.41;94.39
64298;BME280;50639;53.270;7.956;2023-11-19T02:23:08;100378.78;;;10.46;94.63
64298;BME280;50639;53.270;7.956;2023-11-19T02:25:33;100369.22;;;10.47;94.40
64298;BME280;50639;53.270;7.956;2023-11-19T02:28:01;100371.31;;;10.54;94.56
64298;BME280;50639;53.270;7.956;2023-11-19T02:30:26;100369.03;;;10.63;94.56
64298;BME280;50639;53.270;7.956;2023-11-19T02:32:54;100363.34;;;10.70;94.82
64298;BME280;50639;53.270;7.956;2023-11-19T02:35:22;100360.53;;;10.73;94.61
64298;BME280;50639;53.270;7.956;2023-11-19T02:37:48;100362.38;;;10.84;94.55
64298;BME280;50639;53.270;7.956;2023-11-19T02:40:13;100350.06;;;10.87;94.64
64298;BME280;50639;53.270;7.956;2023-11-19T02:42:38;100347.03;;;10.93;94.38
64298;BME280;50639;53.270;7.956;2023-11-19T02:45:04;100350.34;;;10.96;94.54
64298;BME280;50639;53.270;7.956;2023-11-19T02:47:31;100342.25;;;11.00;94.58
64298;BME280;50639;53.270;7.956;2023-11-19T02:49:57;100344.63;;;11.03;94.87
64298;BME280;50639;53.270;7.956;2023-11-19T02:52:23;100337.50;;;11.07;94.94
64298;BME280;50639;53.270;7.956;2023-11-19T02:54:48;100340.38;;;11.15;94.55
64298;BME280;50639;53.270;7.956;2023-11-19T02:57:13;100342.03;;;11.16;94.47
64298;BME280;50639;53.270;7.956;2023-11-19T02:59:39;100340.38;;;11.15;94.69
64298;BME280;50639;53.270;7.956;2023-11-19T03:02:07;100343.44;;;11.20;94.52
64298;BME280;50639;53.270;7.956;2023-11-19T03:04:39;100339.47;;;11.27;94.41
64298;BME280;50639;53.270;7.956;2023-11-19T03:07:06;100349.44;;;11.33;94.26
64298;BME280;50639;53.270;7.956;2023-11-19T03:09:33;100349.19;;;11.36;94.18
64298;BME280;50639;53.270;7.956;2023-11-19T03:11:59;100344.63;;;11.40;94.17
64298;BME280;50639;53.270;7.956;2023-11-19T03:14:25;100345.69;;;11.37;94.03
64298;BME280;50639;53.270;7.956;2023-11-19T03:16:51;100342.03;;;11.40;94.41
64298;BME280;50639;53.270;7.956;2023-11-19T03:19:17;100341.22;;;11.39;94.48
64298;BME280;50639;53.270;7.956;2023-11-19T03:21:42;100336.31;;;11.47;94.57
64298;BME280;50639;53.270;7.956;2023-11-19T03:24:07;100326.75;;;11.48;94.30
64298;BME280;50639;53.270;7.956;2023-11-19T03:26:34;100335.03;;;11.53;93.87
64298;BME280;50639;53.270;7.956;2023-11-19T03:28:59;100325.09;;;11.47;93.82
64298;BME280;50639;53.270;7.956;2023-11-19T03:31:25;100328.06;;;11.53;93.93
64298;BME280;50639;53.270;7.956;2023-11-19T03:33:51;100325.47;;;11.53;93.74
64298;BME280;50639;53.270;7.956;2023-11-19T03:36:16;100321.94;;;11.54;93.98
64298;BME280;50639;53.270;7.956;2023-11-19T03:38:42;100331.59;;;11.52;94.02
64298;BME280;50639;53.270;7.956;2023-11-19T03:41:12;100323.22;;;11.49;93.79
64298;BME280;50639;53.270;7.956;2023-11-19T03:43:38;100318.78;;;11.51;94.22
64298;BME280;50639;53.270;7.956;2023-11-19T03:46:04;100320.09;;;11.56;93.99
64298;BME280;50639;53.270;7.956;2023-11-19T03:48:31;100311.38;;;11.57;94.30
64298;BME280;50639;53.270;7.956;2023-11-19T03:50:56;100317.28;;;11.59;94.17
64298;BME280;50639;53.270;7.956;2023-11-19T03:53:21;100307.59;;;11.61;93.84
64298;BME280;50639;53.270;7.956;2023-11-19T03:55:47;100313.88;;;11.70;94.06
64298;BME280;50639;53.270;7.956;2023-11-19T03:58:12;100305.50;;;11.66;93.89
64298;BME280;50639;53.270;7.956;2023-11-19T04:00:37;100315.53;;;11.71;93.47
64298;BME280;50639;53.270;7.956;2023-11-19T04:03:03;100321.38;;;11.75;93.25
64298;BME280;50639;53.270;7.956;2023-11-19T04:05:28;100317.31;;;11.70;93.70
64298;BME280;50639;53.270;7.956;2023-11-19T04:07:53;100315.66;;;11.69;93.58
64298;BME280;50639;53.270;7.956;2023-11-19T04:10:19;100314.94;;;11.67;93.31
64298;BME280;50639;53.270;7.956;2023-11-19T04:12:45;100316.09;;;11.63;93.54
64298;BME280;50639;53.270;7.956;2023-11-19T04:15:11;100314.94;;;11.67;92.88
64298;BME280;50639;53.270;7.956;2023-11-19T04:17:36;100306.22;;;11.68;93.53
64298;BME280;50639;53.270;7.956;2023-11-19T04:20:02;100312.34;;;11.67;93.08
64298;BME280;50639;53.270;7.956;2023-11-19T04:22:29;100302.47;;;11.73;93.00
64298;BME280;50639;53.270;7.956;2023-11-19T04:24:54;100289.59;;;11.71;92.87
64298;BME280;50639;53.270;7.956;2023-11-19T04:27:20;100296.44;;;11.72;92.75
64298;BME280;50639;53.270;7.956;2023-11-19T04:29:45;100291.34;;;11.70;92.57
64298;BME280;50639;53.270;7.956;2023-11-19T04:32:12;100293.00;;;11.72;92.33
64298;BME280;50639;53.270;7.956;2023-11-19T04:34:37;100284.88;;;11.65;91.99
64298;BME280;50639;53.270;7.956;2023-11-19T04:37:03;100285.59;;;11.67;92.43
64298;BME280;50639;53.270;7.956;2023-11-19T04:39:29;100290.88;;;11.65;92.54
64298;BME280;50639;53.270;7.956;2023-11-19T04:41:55;100282.88;;;11.68;92.22
64298;BME280;50639;53.270;7.956;2023-11-19T04:44:21;100276.75;;;11.69;92.34
64298;BME280;50639;53.270;7.956;2023-11-19T04:46:46;100276.34;;;11.76;92.07
64298;BME280;50639;53.270;7.956;2023-11-19T04:49:13;100269.66;;;11.72;91.81
64298;BME280;50639;53.270;7.956;2023-11-19T04:51:44;100266.38;;;11.69;91.36
64298;BME280;50639;53.270;7.956;2023-11-19T04:54:12;100270.84;;;11.67;91.87
64298;BME280;50639;53.270;7.956;2023-11-19T04:56:37;100272.38;;;11.70;91.46
64298;BME280;50639;53.270;7.956;2023-11-19T04:59:03;100276.22;;;11.77;91.09
64298;BME280;50639;53.270;7.956;2023-11-19T05:01:30;100272.91;;;11.75;90.97
64298;BME280;50639;53.270;7.956;2023-11-19T05:03:56;100278.94;;;11.76;91.26
64298;BME280;50639;53.270;7.956;2023-11-19T05:06:26;100272.91;;;11.75;91.12
64298;BME280;50639;53.270;7.956;2023-11-19T05:08:52;100274.31;;;11.79;91.11
64298;BME280;50639;53.270;7.956;2023-11-19T05:11:19;100281.81;;;11.71;91.11
64298;BME280;50639;53.270;7.956;2023-11-19T05:13:45;100280.88;;;11.72;90.89
64298;BME280;50639;53.270;7.956;2023-11-19T05:16:10;100265.41;;;11.70;90.80
64298;BME280;50639;53.270;7.956;2023-11-19T05:18:35;100281.53;;;11.76;90.88
64298;BME280;50639;53.270;7.956;2023-11-19T05:21:01;100280.84;;;11.85;90.36
64298;BME280;50639;53.270;7.956;2023-11-19T05:23:26;100280.84;;;11.85;89.56
64298;BME280;50639;53.270;7.956;2023-11-19T05:25:51;100278.81;;;11.88;89.45
64298;BME280;50639;53.270;7.956;2023-11-19T05:28:17;100288.94;;;11.80;89.19
64298;BME280;50639;53.270;7.956;2023-11-19T05:30:42;100281.28;;;11.79;89.29
64298;BME280;50639;53.270;7.956;2023-11-19T05:33:07;100290.72;;;11.80;89.56
64298;BME280;50639;53.270;7.956;2023-11-19T05:35:34;100294.03;;;11.82;89.90
64298;BME280;50639;53.270;7.956;2023-11-19T05:37:59;100282.25;;;11.78;89.54
64298;BME280;50639;53.270;7.956;2023-11-19T05:40:25;100289.78;;;11.81;89.57
64298;BME280;50639;53.270;7.956;2023-11-19T05:42:50;100289.31;;;11.76;88.99
64298;BME280;50639;53.270;7.956;2023-11-19T05:45:15;100298.09;;;11.73;89.11
64298;BME280;50639;53.270;7.956;2023-11-19T05:47:44;100292.91;;;11.73;89.27
64298;BME280;50639;53.270;7.956;2023-11-19T05:50:10;100296.72;;;11.80;88.93
64298;BME280;50639;53.270;7.956;2023-11-19T05:52:35;100299.84;;;11.85;88.48
64298;BME280;50639;53.270;7.956;2023-11-19T05:55:00;100301.09;;;11.80;88.15
64298;BME280;50639;53.270;7.956;2023-11-19T05:57:29;100292.84;;;11.75;88.19
64298;BME280;50639;53.270;7.956;2023-11-19T05:59:54;100312.72;;;11.74;88.36
64298;BME280;50639;53.270;7.956;2023-11-19T06:02:20;100305.69;;;11.76;87.88
64298;BME280;50639;53.270;7.956;2023-11-19T06:04:45;100305.81;;;11.75;87.84
64298;BME280;50639;53.270;7.956;2023-11-19T06:07:13;100300.91;;;11.70;88.69
64298;BME280;50639;53.270;7.956;2023-11-19T06:09:39;100316.91;;;11.77;87.88
64298;BME280;50639;53.270;7.956;2023-11-19T06:12:05;100303.94;;;11.77;88.08
64298;BME280;50639;53.270;7.956;2023-11-19T06:14:31;100306.28;;;11.80;87.50
64298;BME280;50639;53.270;7.956;2023-11-19T06:16:56;100303.22;;;11.75;87.34
64298;BME280;50639;53.270;7.956;2023-11-19T06:19:22;100307.72;;;11.84;87.08
64298;BME280;50639;53.270;7.956;2023-11-19T06:21:49;100311.72;;;11.77;87.31
64298;BME280;50639;53.270;7.956;2023-11-19T06:24:15;100304.94;;;11.74;87.26
64298;BME280;50639;53.270;7.956;2023-11-19T06:26:40;100304.41;;;11.82;87.41
64298;BME280;50639;53.270;7.956;2023-11-19T06:29:05;100312.19;;;11.82;87.47
64298;BME280;50639;53.270;7.956;2023-11-19T06:31:31;100305.25;;;11.82;86.72
64298;BME280;50639;53.270;7.956;2023-11-19T06:33:56;100300.16;;;11.81;86.88
64298;BME280;50639;53.270;7.956;2023-11-19T06:36:21;100325.06;;;11.83;86.59
64298;BME280;50639;53.270;7.956;2023-11-19T06:38:47;100301.59;;;11.85;86.41
64298;BME280;50639;53.270;7.956;2023-11-19T06:41:12;100312.91;;;11.84;86.20
64298;BME280;50639;53.270;7.956;2023-11-19T06:43:37;100315.84;;;11.79;86.42
64298;BME280;50639;53.270;7.956;2023-11-19T06:46:03;100322.69;;;11.80;86.58
64298;BME280;50639;53.270;7.956;2023-11-19T06:48:34;100323.63;;;11.79;85.71
64298;BME280;50639;53.270;7.956;2023-11-19T06:51:00;100321.03;;;11.79;85.86
64298;BME280;50639;53.270;7.956;2023-11-19T06:53:25;100325.38;;;11.79;85.98
64298;BME280;50639;53.270;7.956;2023-11-19T06:55:53;100324.25;;;11.70;85.93
64298;BME280;50639;53.270;7.956;2023-11-19T06:58:18;100332.19;;;11.68;86.17
64298;BME280;50639;53.270;7.956;2023-11-19T07:00:43;100330.41;;;11.69;85.63
64298;BME280;50639;53.270;7.956;2023-11-19T07:03:09;100336.53;;;11.68;85.95
64298;BME280;50639;53.270;7.956;2023-11-19T07:05:38;100336.63;;;11.66;85.86
64298;BME280;50639;53.270;7.956;2023-11-19T07:08:05;100328.84;;;11.66;85.76
64298;BME280;50639;53.270;7.956;2023-11-19T07:10:32;100345.34;;;11.65;85.57
64298;BME280;50639;53.270;7.956;2023-11-19T07:12:57;100332.13;;;11.57;85.51
64298;BME280;50639;53.270;7.956;2023-11-19T07:15:22;100331.41;;;11.55;85.47
64298;BME280;50639;53.270;7.956;2023-11-19T07:17:48;100334.50;;;11.60;85.56
64298;BME280;50639;53.270;7.956;2023-11-19T07:20:13;100336.25;;;11.60;85.46
64298;BME280;50639;53.270;7.956;2023-11-19T07:22:43;100352.53;;;11.62;85.37
64298;BME280;50639;53.270;7.956;2023-11-19T07:25:12;100338.03;;;11.59;85.79
64298;BME280;50639;53.270;7.956;2023-11-19T07:27:38;100340.16;;;11.65;84.88
64298;BME280;50639;53.270;7.956;2023-11-19T07:30:05;100341.72;;;11.68;85.25
64298;BME280;50639;53.270;7.956;2023-11-19T07:32:30;100337.13;;;11.72;84.26
64298;BME280;50639;53.270;7.956;2023-11-19T07:34:55;100345.97;;;11.69;84.46
64298;BME280;50639;53.270;7.956;2023-11-19T07:37:21;100347.00;;;11.66;84.31
64298;BME280;50639;53.270;7.956;2023-11-19T07:39:47;100349.72;;;11.65;84.35
64298;BME280;50639;53.270;7.956;2023-11-19T07:42:12;100344.75;;;11.62;84.56
64298;BME280;50639;53.270;7.956;2023-11-19T07:44:38;100370.25;;;11.68;84.45
64298;BME280;50639;53.270;7.956;2023-11-19T07:47:04;100363.84;;;11.61;83.85
64298;BME280;50639;53.270;7.956;2023-11-19T07:49:29;100358.13;;;11.68;84.03
64298;BME280;50639;53.270;7.956;2023-11-19T07:51:56;100355.63;;;11.67;84.25
64298;BME280;50639;53.270;7.956;2023-11-19T07:54:21;100353.22;;;11.77;84.12
64298;BME280;50639;53.270;7.956;2023-11-19T07:56:47;100362.78;;;11.76;84.07
64298;BME280;50639;53.270;7.956;2023-11-19T07:59:12;100366.59;;;11.70;83.99
64298;BME280;50639;53.270;7.956;2023-11-19T08:01:37;100367.31;;;11.73;84.22
64298;BME280;50639;53.270;7.956;2023-11-19T08:04:03;100365.38;;;11.76;83.88
64298;BME280;50639;53.270;7.956;2023-11-19T08:06:28;100368.16;;;11.73;83.65
64298;BME280;50639;53.270;7.956;2023-11-19T08:08:54;100374.09;;;11.75;83.90
64298;BME280;50639;53.270;7.956;2023-11-19T08:11:19;100387.06;;;11.75;84.04
64298;BME280;50639;53.270;7.956;2023-11-19T08:13:45;100380.41;;;11.71;84.59
64298;BME280;50639;53.270;7.956;2023-11-19T08:16:10;100377.31;;;11.66;84.66
64298;BME280;50639;53.270;7.956;2023-11-19T08:18:36;100381.69;;;11.65;84.86
64298;BME280;50639;53.270;7.956;2023-11-19T08:21:01;100389.84;;;11.72;85.03
64298;BME280;50639;53.270;7.956;2023-11-19T08:23:30;100383.22;;;11.68;85.01
64298;BME280;50639;53.270;7.956;2023-11-19T08:25:55;100390.28;;;11.66;85.34
64298;BME280;50639;53.270;7.956;2023-11-19T08:28:20;100395.13;;;11.70;85.37
64298;BME280;50639;53.270;7.956;2023-11-19T08:30:46;100393.38;;;11.71;84.28
64298;BME280;50639;53.270;7.956;2023-11-19T08:33:11;100401.88;;;11.73;85.05
64298;BME280;50639;53.270;7.956;2023-11-19T08:35:37;100394.84;;;11.62;85.45
64298;BME280;50639;53.270;7.956;2023-11-19T08:38:02;100387.19;;;11.61;86.59
64298;BME280;50639;53.270;7.956;2023-11-19T08:40:28;100396.03;;;11.58;86.58
64298;BME280;50639;53.270;7.956;2023-11-19T08:42:55;100397.06;;;11.56;86.50
64298;BME280;50639;53.270;7.956;2023-11-19T08:45:21;100403.34;;;11.64;86.61
64298;BME280;50639;53.270;7.956;2023-11-19T08:47:46;100407.16;;;11.72;86.27
64298;BME280;50639;53.270;7.956;2023-11-19T08:50:12;100410.09;;;11.67;86.07
64298;BME280;50639;53.270;7.956;2023-11-19T08:52:37;100414.25;;;11.69;85.81
64298;BME280;50639;53.270;7.956;2023-11-19T08:55:04;100405.75;;;11.67;86.11
64298;BME280;50639;53.270;7.956;2023-11-19T08:57:35;100409.16;;;11.68;86.43
64298;BME280;50639;53.270;7.956;2023-11-19T09:00:01;100411.41;;;11.73;86.45
64298;BME280;50639;53.270;7.956;2023-11-19T09:02:26;100416.44;;;11.76;86.27
64298;BME280;50639;53.270;7.956;2023-11-19T09:04:51;100411.53;;;11.84;86.51
64298;BME280;50639;53.270;7.956;2023-11-19T09:07:17;100412.44;;;11.83;85.67
64298;BME280;50639;53.270;7.956;2023-11-19T09:09:42;100411.13;;;11.77;85.58
64298;BME280;50639;53.270;7.956;2023-11-19T09:12:07;100423.28;;;11.77;85.58
64298;BME280;50639;53.270;7.956;2023-11-19T09:14:33;100425.63;;;11.80;85.45
64298;BME280;50639;53.270;7.956;2023-11-19T09:16:58;100415.78;;;11.85;85.48
64298;BME280;50639;53.270;7.956;2023-11-19T09:19:24;100420.25;;;11.83;85.40
64298;BME280;50639;53.270;7.956;2023-11-19T09:21:51;100430.06;;;11.90;85.36
64298;BME280;50639;53.270;7.956;2023-11-19T09:24:17;100430.16;;;11.89;85.11
64298;BME280;50639;53.270;7.956;2023-11-19T09:26:42;100426.31;;;11.94;84.63
64298;BME280;50639;53.270;7.956;2023-11-19T09:29:08;100430.97;;;12.02;84.31
64298;BME280;50639;53.270;7.956;2023-11-19T09:31:33;100428.34;;;12.02;84.89
64298;BME280;50639;53.270;7.956;2023-11-19T09:34:00;100427.69;;;12.11;84.30
64298;BME280;50639;53.270;7.956;2023-11-19T09:36:25;100424.25;;;12.11;83.69
64298;BME280;50639;53.270;7.956;2023-11-19T09:38:50;100430.72;;;12.05;83.55
64298;BME280;50639;53.270;7.956;2023-11-19T09:41:15;100433.44;;;12.03;83.75
64298;BME280;50639;53.270;7.956;2023-11-19T09:43:41;100428.72;;;12.09;83.75
64298;BME280;50639;53.270;7.956;2023-11-19T09:46:09;100425.09;;;12.11;84.21
64298;BME280;50639;53.270;7.956;2023-11-19T09:48:38;100433.03;;;12.21;83.44
64298;BME280;50639;53.270;7.956;2023-11-19T09:51:07;100439.94;;;12.09;83.95
64298;BME280;50639;53.270;7.956;2023-11-19T09:53:33;100444.19;;;12.10;84.21
64298;BME280;50639;53.270;7.956;2023-11-19T09:56:00;100441.09;;;12.05;84.24
64298;BME280;50639;53.270;7.956;2023-11-19T09:58:26;100441.34;;;12.02;84.49
64298;BME280;50639;53.270;7.956;2023-11-19T10:00:51;100445.44;;;11.93;85.12
64298;BME280;50639;53.270;7.956;2023-11-19T10:03:21;100435.19;;;11.79;85.99
64298;BME280;50639;53.270;7.956;2023-11-19T10:05:47;100438.31;;;11.72;86.52
64298;BME280;50639;53.270;7.956;2023-11-19T10:08:12;100436.38;;;11.75;86.59
64298;BME280;50639;53.270;7.956;2023-11-19T10:10:39;100445.16;;;11.73;86.87
64298;BME280;50639;53.270;7.956;2023-11-19T10:13:04;100435.69;;;11.72;86.01
64298;BME280;50639;53.270;7.956;2023-11-19T10:15:35;100437.91;;;11.78;86.45
64298;BME280;50639;53.270;7.956;2023-11-19T10:18:00;100439.41;;;11.93;86.07
64298;BME280;50639;53.270;7.956;2023-11-19T10:20:26;100440.00;;;11.96;85.10
64298;BME280;50639;53.270;7.956;2023-11-19T10:22:55;100435.09;;;12.04;85.26
64298;BME280;50639;53.270;7.956;2023-11-19T10:25:25;100432.34;;;11.95;85.04
64298;BME280;50639;53.270;7.956;2023-11-19T10:27:51;100433.88;;;11.97;85.17
64298;BME280;50639;53.270;7.956;2023-11-19T10:30:22;100434.53;;;11.88;84.82
64298;BME280;50639;53.270;7.956;2023-11-19T10:35:26;100431.91;;;11.77;85.53
64298;BME280;50639;53.270;7.956;2023-11-19T10:37:51;100433.69;;;11.88;85.10
64298;BME280;50639;53.270;7.956;2023-11-19T10:40:17;100439.88;;;11.98;85.26
64298;BME280;50639;53.270;7.956;2023-11-19T10:42:43;100436.97;;;12.02;85.40
64298;BME280;50639;53.270;7.956;2023-11-19T10:45:22;100432.63;;;12.03;84.94
64298;BME280;50639;53.270;7.956;2023-11-19T10:47:50;100441.59;;;12.10;84.55
64298;BME280;50639;53.270;7.956;2023-11-19T10:50:16;100438.06;;;12.11;85.14
64298;BME280;50639;53.270;7.956;2023-11-19T10:52:43;100437.41;;;12.20;83.91
64298;BME280;50639;53.270;7.956;2023-11-19T10:55:11;100439.81;;;12.34;84.03
64298;BME280;50639;53.270;7.956;2023-11-19T10:57:37;100443.69;;;12.29;83.70
64298;BME280;50639;53.270;7.956;2023-11-19T11:00:06;100442.34;;;12.23;83.62
64298;BME280;50639;53.270;7.956;2023-11-19T11:02:40;100444.28;;;12.32;83.30
64298;BME280;50639;53.270;7.956;2023-11-19T11:05:07;100433.06;;;12.32;83.05
64298;BME280;50639;53.270;7.956;2023-11-19T11:07:33;100429.25;;;12.25;83.29
64298;BME280;50639;53.270;7.956;2023-11-19T11:10:00;100432.94;;;12.22;82.97
64298;BME280;50639;53.270;7.956;2023-11-19T11:12:26;100436.47;;;12.21;83.43
64298;BME280;50639;53.270;7.956;2023-11-19T11:14:54;100435.38;;;12.13;83.65
64298;BME280;50639;53.270;7.956;2023-11-19T11:17:20;100425.31;;;12.08;83.34
64298;BME280;50639;53.270;7.956;2023-11-19T11:19:49;100433.81;;;12.10;83.48
64298;BME280;50639;53.270;7.956;2023-11-19T11:22:15;100425.34;;;12.19;83.68
64298;BME280;50639;53.270;7.956;2023-11-19T11:25:11;100425.63;;;12.27;82.77
64298;BME280;50639;53.270;7.956;2023-11-19T11:27:49;100412.03;;;12.24;82.89
64298;BME280;50639;53.270;7.956;2023-11-19T11:38:34;100421.03;;;12.31;83.10
64298;BME280;50639;53.270;7.956;2023-11-19T11:41:22;100417.97;;;12.37;83.08
64298;BME280;50639;53.270;7.956;2023-11-19T11:43:50;100416.78;;;12.41;83.43
64298;BME280;50639;53.270;7.956;2023-11-19T11:49:08;100412.06;;;12.35;82.54
64298;BME280;50639;53.270;7.956;2023-11-19T11:54:10;100416.38;;;12.23;82.71
64298;BME280;50639;53.270;7.956;2023-11-19T11:56:39;100420.38;;;12.16;82.64
64298;BME280;50639;53.270;7.956;2023-11-19T11:59:09;100415.09;;;12.18;82.63
64298;BME280;50639;53.270;7.956;2023-11-19T12:01:57;100412.22;;;12.10;83.33
64298;BME280;50639;53.270;7.956;2023-11-19T12:04:26;100406.00;;;12.12;83.20
64298;BME280;50639;53.270;7.956;2023-11-19T12:07:06;100401.22;;;12.06;82.74
64298;BME280;50639;53.270;7.956;2023-11-19T12:09:32;100398.41;;;12.09;83.14
64298;BME280;50639;53.270;7.956;2023-11-19T12:12:21;100410.19;;;12.02;83.52
64298;BME280;50639;53.270;7.956;2023-11-19T12:20:04;100418.47;;;12.07;84.20
64298;BME280;50639;53.270;7.956;2023-11-19T12:22:30;100417.88;;;12.03;83.89
64298;BME280;50639;53.270;7.956;2023-11-19T12:24:56;100414.47;;;12.14;83.64
64298;BME280;50639;53.270;7.956;2023-11-19T12:27:21;100405.47;;;11.96;83.39
64298;BME280;50639;53.270;7.956;2023-11-19T12:29:48;100396.50;;;12.00;83.89
64298;BME280;50639;53.270;7.956;2023-11-19T12:32:14;100400.63;;;12.02;83.66
64298;BME280;50639;53.270;7.956;2023-11-19T12:34:39;100407.03;;;12.10;83.87
64298;BME280;50639;53.270;7.956;2023-11-19T12:37:05;100405.38;;;12.09;83.62
64298;BME280;50639;53.270;7.956;2023-11-19T12:39:31;100403.28;;;12.14;82.96
64298;BME280;50639;53.270;7.956;2023-11-19T12:41:56;100404.84;;;12.27;82.80
64298;BME280;50639;53.270;7.956;2023-11-19T12:44:24;100395.75;;;12.33;82.42
64298;BME280;50639;53.270;7.956;2023-11-19T12:47:08;100403.44;;;12.34;82.42
64298;BME280;50639;53.270;7.956;2023-11-19T12:49:36;100389.06;;;12.30;82.40
64298;BME280;50639;53.270;7.956;2023-11-19T12:52:02;100391.50;;;12.21;82.66
64298;BME280;50639;53.270;7.956;2023-11-19T12:54:36;100400.69;;;12.25;82.56
64298;BME280;50639;53.270;7.956;2023-11-19T12:57:03;100389.75;;;12.32;82.19
64298;BME280;50639;53.270;7.956;2023-11-19T12:59:29;100394.09;;;12.32;82.14
64298;BME280;50639;53.270;7.956;2023-11-19T13:01:56;100392.88;;;12.49;82.66
64298;BME280;50639;53.270;7.956;2023-11-19T13:04:22;100399.47;;;12.53;81.36
64298;BME280;50639;53.270;7.956;2023-11-19T13:06:47;100388.16;;;12.54;81.56
64298;BME280;50639;53.270;7.956;2023-11-19T13:09:28;100399.69;;;12.50;81.75
64298;BME280;50639;53.270;7.956;2023-11-19T13:11:55;100387.94;;;12.57;81.41